createdAt,value
2023-05-23T00:00:19.862Z,16.10
2023-05-23T00:02:47.157Z,17.08
2023-05-23T00:05:15.483Z,14.65
2023-05-23T00:07:42.820Z,17.30
2023-05-23T00:10:10.111Z,18.40
2023-05-23T00:12:42.348Z,17.10
2023-05-23T00:15:10.173Z,15.95
2023-05-23T00:17:38.244Z,18.60
2023-05-23T00:20:05.859Z,19.50
2023-05-23T00:22:32.917Z,16.90
2023-05-23T00:25:02.339Z,17.08
2023-05-23T00:27:29.457Z,16.65
2023-05-23T00:29:56.687Z,17.45
2023-05-23T00:32:23.795Z,17.58
2023-05-23T00:34:53.999Z,15.38
2023-05-23T00:37:22.392Z,15.43
2023-05-23T00:39:49.643Z,18.83
2023-05-23T00:42:16.777Z,16.92
2023-05-23T00:44:43.833Z,15.50
2023-05-23T00:47:13.756Z,15.63
2023-05-23T00:49:41.121Z,15.85
2023-05-23T00:52:08.283Z,19.48
2023-05-23T00:54:35.735Z,16.13
2023-05-23T00:57:03.234Z,16.02
2023-05-23T00:59:30.904Z,19.42
2023-05-23T01:01:58.251Z,16.33
2023-05-23T01:04:26.743Z,16.50
2023-05-23T01:06:57.301Z,16.30
2023-05-23T01:09:25.745Z,15.60
2023-05-23T01:12:15.792Z,15.93
2023-05-23T01:15:02.282Z,16.02
2023-05-23T01:17:52.498Z,16.85
2023-05-23T01:20:36.257Z,18.30
2023-05-23T01:23:06.800Z,15.95
2023-05-23T01:25:58.113Z,16.58
2023-05-23T01:28:26.441Z,16.02
2023-05-23T01:30:56.285Z,17.20
2023-05-23T01:33:23.529Z,16.42
2023-05-23T01:35:51.036Z,17.25
2023-05-23T01:38:18.332Z,15.20
2023-05-23T01:40:45.451Z,18.55
2023-05-23T01:43:12.697Z,15.95
2023-05-23T01:45:40.424Z,15.23
2023-05-23T01:48:09.012Z,16.27
2023-05-23T01:50:36.441Z,15.95
2023-05-23T01:53:03.629Z,17.58
2023-05-23T01:55:31.132Z,16.83
2023-05-23T01:57:58.685Z,20.08
2023-05-23T02:00:25.887Z,18.60
2023-05-23T02:02:53.132Z,18.90
2023-05-23T02:05:20.254Z,16.15
2023-05-23T02:07:47.328Z,16.65
2023-05-23T02:10:14.469Z,18.83
2023-05-23T02:12:41.590Z,15.57
2023-05-23T02:15:09.205Z,18.00
2023-05-23T02:17:36.374Z,16.83
2023-05-23T02:20:03.833Z,17.05
2023-05-23T02:22:30.952Z,18.02
2023-05-23T02:24:58.066Z,16.58
2023-05-23T02:27:25.191Z,20.33
2023-05-23T02:29:52.280Z,18.95
2023-05-23T02:32:19.368Z,18.70
2023-05-23T02:34:50.253Z,18.80
2023-05-23T02:37:17.345Z,18.15
2023-05-23T02:39:44.614Z,20.15
2023-05-23T02:42:11.787Z,18.45
2023-05-23T02:44:38.849Z,18.58
2023-05-23T02:47:06.260Z,18.15
2023-05-23T02:49:33.374Z,18.05
2023-05-23T02:52:00.543Z,17.65
2023-05-23T02:54:27.650Z,18.88
2023-05-23T02:56:55.775Z,20.23
2023-05-23T02:59:23.157Z,18.48
2023-05-23T03:01:50.289Z,17.38
2023-05-23T03:04:18.307Z,19.90
2023-05-23T03:06:45.424Z,19.27
2023-05-23T03:09:12.611Z,18.10
2023-05-23T03:11:40.265Z,19.65
2023-05-23T03:14:07.400Z,18.40
2023-05-23T03:16:34.521Z,18.67
2023-05-23T03:19:01.672Z,18.35
2023-05-23T03:21:28.810Z,19.17
2023-05-23T03:23:56.116Z,18.92
2023-05-23T03:26:23.878Z,20.15
2023-05-23T03:28:51.298Z,19.08
2023-05-23T03:31:18.433Z,20.15
2023-05-23T03:33:45.534Z,20.15
2023-05-23T03:36:12.671Z,19.35
2023-05-23T03:38:39.748Z,20.08
2023-05-23T03:41:06.853Z,18.23
2023-05-23T03:43:33.924Z,20.40
2023-05-23T03:46:01.212Z,18.77
2023-05-23T03:48:30.366Z,20.85
2023-05-23T03:50:57.564Z,20.50
2023-05-23T03:53:24.649Z,19.50
2023-05-23T03:55:53.982Z,20.38
2023-05-23T03:58:21.360Z,23.50
2023-05-23T04:00:48.422Z,20.30
2023-05-23T04:03:17.617Z,20.60
2023-05-23T04:05:44.911Z,21.38
2023-05-23T04:08:12.933Z,23.77
2023-05-23T04:10:40.409Z,22.90
2023-05-23T04:13:07.548Z,21.10
2023-05-23T04:15:35.299Z,20.70
2023-05-23T04:18:03.535Z,23.52
2023-05-23T04:20:31.002Z,25.38
2023-05-23T04:22:58.065Z,21.55
2023-05-23T04:25:26.263Z,21.67
2023-05-23T04:27:54.320Z,22.90
2023-05-23T04:30:22.237Z,22.70
2023-05-23T04:32:49.377Z,21.88
2023-05-23T04:35:16.497Z,21.67
2023-05-23T04:37:45.616Z,23.08
2023-05-23T04:40:13.511Z,22.85
2023-05-23T04:42:42.357Z,23.85
2023-05-23T04:45:10.000Z,21.70
2023-05-23T04:47:37.532Z,21.40
2023-05-23T04:50:05.504Z,21.60
2023-05-23T04:52:34.064Z,25.25
2023-05-23T04:55:01.894Z,23.48
2023-05-23T04:57:29.405Z,24.30
2023-05-23T04:59:57.387Z,26.90
2023-05-23T05:02:24.590Z,23.30
2023-05-23T05:04:51.703Z,22.98
2023-05-23T05:07:18.875Z,22.80
2023-05-23T05:09:46.080Z,23.02
2023-05-23T05:12:13.239Z,24.58
2023-05-23T05:14:39.928Z,22.45
2023-05-23T05:17:07.207Z,22.85
2023-05-23T05:19:34.417Z,22.02
2023-05-23T05:22:01.518Z,22.60
2023-05-23T05:24:29.000Z,22.35
2023-05-23T05:26:56.395Z,24.42
2023-05-23T05:29:23.555Z,23.35
2023-05-23T05:31:50.856Z,23.25
2023-05-23T05:34:18.336Z,23.55
2023-05-23T05:36:48.429Z,23.02
2023-05-23T05:39:15.602Z,23.08
2023-05-23T05:41:42.694Z,24.27
2023-05-23T05:44:10.720Z,23.50
2023-05-23T05:46:37.931Z,23.95
2023-05-23T05:49:05.089Z,21.45
2023-05-23T05:51:32.224Z,23.45
2023-05-23T05:53:59.311Z,21.63
2023-05-23T05:56:27.830Z,23.40
2023-05-23T05:58:54.960Z,22.75
2023-05-23T06:01:22.048Z,24.95
2023-05-23T06:03:49.319Z,24.30
2023-05-23T06:06:16.857Z,27.25
2023-05-23T06:08:44.861Z,24.92
2023-05-23T06:11:12.173Z,22.17
2023-05-23T06:13:39.293Z,23.48
2023-05-23T06:16:07.269Z,24.02
2023-05-23T06:18:34.466Z,25.65
2023-05-23T06:21:01.581Z,22.70
2023-05-23T06:23:28.703Z,24.83
2023-05-23T06:25:55.804Z,24.65
2023-05-23T06:28:22.852Z,25.10
2023-05-23T06:30:50.064Z,25.40
2023-05-23T06:33:17.421Z,26.45
2023-05-23T06:35:44.557Z,24.45
2023-05-23T06:38:11.675Z,25.63
2023-05-23T06:40:38.994Z,23.10
2023-05-23T06:43:06.239Z,24.55
2023-05-23T06:45:35.120Z,26.35
2023-05-23T06:48:02.403Z,26.00
2023-05-23T06:50:29.804Z,25.25
2023-05-23T06:52:56.896Z,24.65
2023-05-23T06:55:24.290Z,27.10
2023-05-23T06:57:52.236Z,25.35
2023-05-23T07:00:19.751Z,23.70
2023-05-23T07:02:48.607Z,27.58
2023-05-23T07:05:16.316Z,24.83
2023-05-23T07:07:43.665Z,22.60
2023-05-23T07:10:11.339Z,24.63
2023-05-23T07:12:38.484Z,24.80
2023-05-23T07:15:13.085Z,27.75
2023-05-23T07:17:40.207Z,25.55
2023-05-23T07:20:08.209Z,27.88
2023-05-23T07:22:35.345Z,27.02
2023-05-23T07:25:02.621Z,25.55
2023-05-23T07:27:29.832Z,28.58
2023-05-23T07:29:57.501Z,29.10
2023-05-23T07:32:24.626Z,25.85
2023-05-23T07:34:51.804Z,29.52
2023-05-23T07:37:18.923Z,24.55
2023-05-23T07:39:45.976Z,27.60
2023-05-23T07:42:13.117Z,25.98
2023-05-23T07:44:41.960Z,25.65
2023-05-23T07:47:09.060Z,26.58
2023-05-23T07:49:36.303Z,25.63
2023-05-23T07:52:03.467Z,25.40
2023-05-23T07:54:30.852Z,24.40
2023-05-23T07:56:57.965Z,27.63
2023-05-23T07:59:25.115Z,24.05
2023-05-23T08:01:52.271Z,27.67
2023-05-23T08:04:19.452Z,25.92
2023-05-23T08:07:04.310Z,25.13
2023-05-23T08:09:32.355Z,27.00
2023-05-23T08:11:59.556Z,27.30
2023-05-23T08:14:38.743Z,26.30
2023-05-23T08:17:15.310Z,27.70
2023-05-23T08:19:42.494Z,26.95
2023-05-23T08:22:09.734Z,24.08
2023-05-23T08:24:36.908Z,28.52
2023-05-23T08:27:04.056Z,26.83
2023-05-23T08:29:31.252Z,26.30
2023-05-23T08:31:58.409Z,25.35
2023-05-23T08:34:25.553Z,27.60
2023-05-23T08:36:52.677Z,27.33
2023-05-23T08:39:19.830Z,31.13
2023-05-23T08:41:47.245Z,26.92
2023-05-23T08:44:14.538Z,27.38
2023-05-23T08:46:46.172Z,27.15
2023-05-23T08:49:14.373Z,27.73
2023-05-23T08:51:43.614Z,28.75
2023-05-23T08:54:14.309Z,30.02
2023-05-23T08:56:41.554Z,25.20
2023-05-23T08:59:10.414Z,25.15
2023-05-23T09:01:39.868Z,26.30
2023-05-23T09:04:07.374Z,26.50
2023-05-23T09:06:35.901Z,25.75
2023-05-23T09:09:04.185Z,28.05
2023-05-23T09:11:36.136Z,26.40
2023-05-23T09:14:05.140Z,26.85
2023-05-23T09:16:35.233Z,25.23
2023-05-23T09:19:11.265Z,27.98
2023-05-23T09:21:38.621Z,25.20
2023-05-23T09:24:06.366Z,26.27
2023-05-23T09:26:33.514Z,27.77
2023-05-23T09:29:00.756Z,27.88
2023-05-23T09:31:30.865Z,26.00
2023-05-23T09:33:58.896Z,29.25
2023-05-23T09:36:29.301Z,27.13
2023-05-23T09:38:56.617Z,25.35
2023-05-23T09:41:25.060Z,28.35
2023-05-23T09:43:52.907Z,31.92
2023-05-23T09:46:20.891Z,27.65
2023-05-23T09:48:48.809Z,28.52
2023-05-23T09:51:16.139Z,28.10
2023-05-23T09:53:43.288Z,31.55
2023-05-23T09:56:11.630Z,26.42
2023-05-23T09:58:40.304Z,32.72
2023-05-23T10:01:10.743Z,32.75
2023-05-23T10:03:40.271Z,29.13
2023-05-23T10:06:22.671Z,31.33
2023-05-23T10:08:58.065Z,28.10
2023-05-23T10:11:34.356Z,28.23
2023-05-23T10:14:02.777Z,27.48
2023-05-23T10:16:48.488Z,30.02
2023-05-23T10:19:21.474Z,29.92
2023-05-23T10:21:54.321Z,27.60
2023-05-23T10:24:21.934Z,29.40
2023-05-23T10:26:49.368Z,25.08
2023-05-23T10:29:16.600Z,32.10
2023-05-23T10:31:44.284Z,26.85
2023-05-23T10:34:22.620Z,25.98
2023-05-23T10:36:56.352Z,26.63
2023-05-23T10:39:29.285Z,27.02
2023-05-23T10:41:59.769Z,29.67
2023-05-23T10:44:26.826Z,25.98
2023-05-23T10:46:55.218Z,23.65
2023-05-23T10:49:22.673Z,25.58
2023-05-23T10:51:52.838Z,27.02
2023-05-23T10:54:21.007Z,25.67
2023-05-23T10:56:48.930Z,25.63
2023-05-23T10:59:22.926Z,26.13
2023-05-23T11:01:52.499Z,25.10
2023-05-23T11:04:26.529Z,24.52
2023-05-23T11:06:55.022Z,23.52
2023-05-23T11:09:22.461Z,24.58
2023-05-23T11:11:52.389Z,23.23
2023-05-23T11:14:20.011Z,25.17
2023-05-23T11:16:48.978Z,23.55
2023-05-23T11:19:19.151Z,21.85
2023-05-23T11:21:56.554Z,21.95
2023-05-23T11:24:23.836Z,21.00
2023-05-23T11:27:01.424Z,22.45
2023-05-23T11:29:28.954Z,24.00
2023-05-23T11:31:56.559Z,23.00
2023-05-23T11:34:26.372Z,19.33
2023-05-23T11:36:55.602Z,23.15
2023-05-23T11:39:22.986Z,21.77
2023-05-23T11:42:03.253Z,22.52
2023-05-23T11:44:30.644Z,23.55
2023-05-23T11:47:04.665Z,22.02
2023-05-23T11:49:32.448Z,22.20
2023-05-23T11:52:00.478Z,19.20
2023-05-23T11:54:27.677Z,24.73
2023-05-23T11:56:55.127Z,20.40
2023-05-23T11:59:26.016Z,22.67
2023-05-23T12:01:53.814Z,22.05
2023-05-23T12:04:21.012Z,22.67
2023-05-23T12:06:48.944Z,21.52
2023-05-23T12:09:16.460Z,19.65
2023-05-23T12:11:44.184Z,20.05
2023-05-23T12:14:15.496Z,20.95
2023-05-23T12:16:47.406Z,21.10
2023-05-23T12:19:15.660Z,21.23
2023-05-23T12:21:42.724Z,19.95
2023-05-23T12:24:20.311Z,20.90
2023-05-23T12:26:59.333Z,20.85
2023-05-23T12:29:37.688Z,19.42
2023-05-23T12:32:06.684Z,24.08
2023-05-23T12:34:33.899Z,21.35
2023-05-23T12:37:18.128Z,21.05
2023-05-23T12:39:47.156Z,19.90
2023-05-23T12:42:14.384Z,19.02
2023-05-23T12:44:43.234Z,21.88
2023-05-23T12:47:10.766Z,20.80
2023-05-23T12:49:38.545Z,20.13
2023-05-23T12:52:05.963Z,20.83
2023-05-23T12:54:33.013Z,18.80
2023-05-23T12:57:00.414Z,17.95
2023-05-23T12:59:27.573Z,17.73
2023-05-23T13:01:54.866Z,18.20
2023-05-23T13:04:22.104Z,17.50
2023-05-23T13:06:49.328Z,19.65
2023-05-23T13:09:16.679Z,17.85
2023-05-23T13:11:44.318Z,20.60
2023-05-23T13:14:11.646Z,19.25
2023-05-23T13:16:39.326Z,18.83
2023-05-23T13:19:07.021Z,18.90
2023-05-23T13:21:34.361Z,18.05
2023-05-23T13:24:01.425Z,18.38
2023-05-23T13:26:28.505Z,18.15
2023-05-23T13:28:55.622Z,19.10
2023-05-23T13:31:23.036Z,16.88
2023-05-23T13:33:50.154Z,18.30
2023-05-23T13:36:17.264Z,18.33
2023-05-23T13:38:44.424Z,18.98
2023-05-23T13:41:11.564Z,16.88
2023-05-23T13:43:38.705Z,17.10
2023-05-23T13:46:05.843Z,17.20
2023-05-23T13:48:33.033Z,19.88
2023-05-23T13:51:01.022Z,17.40
2023-05-23T13:53:28.307Z,16.90
2023-05-23T13:55:55.413Z,18.55
2023-05-23T13:58:22.559Z,16.30
2023-05-23T14:00:49.687Z,20.15
2023-05-23T14:03:19.252Z,19.25
2023-05-23T14:05:46.438Z,15.82
2023-05-23T14:08:14.096Z,16.30
2023-05-23T14:10:41.772Z,17.52
2023-05-23T14:13:09.129Z,16.95
2023-05-23T14:15:38.279Z,15.65
2023-05-23T14:18:05.800Z,16.10
2023-05-23T14:20:33.163Z,15.65
2023-05-23T14:23:00.429Z,16.17
2023-05-23T14:25:27.537Z,18.50
2023-05-23T14:27:54.831Z,16.92
2023-05-23T14:30:22.137Z,17.05
2023-05-23T14:32:49.903Z,16.92
2023-05-23T14:35:17.353Z,15.93
2023-05-23T14:37:46.653Z,16.77
2023-05-23T14:40:14.272Z,15.65
2023-05-23T14:42:41.340Z,16.67
2023-05-23T14:45:08.840Z,16.38
2023-05-23T14:47:37.242Z,17.98
2023-05-23T14:50:04.812Z,18.48
2023-05-23T14:52:31.939Z,16.10
2023-05-23T14:54:59.110Z,17.27
2023-05-23T14:57:26.817Z,16.35
2023-05-23T14:59:53.901Z,17.48
2023-05-23T15:02:21.040Z,16.00
2023-05-23T15:04:48.541Z,15.77
2023-05-23T15:07:18.116Z,18.02
2023-05-23T15:09:45.912Z,14.30
2023-05-23T15:12:15.097Z,15.10
2023-05-23T15:14:43.305Z,16.35
2023-05-23T15:17:12.612Z,18.95
2023-05-23T15:19:42.745Z,17.08
2023-05-23T15:22:18.729Z,15.48
2023-05-23T15:24:49.690Z,18.08
2023-05-23T15:27:20.328Z,16.83
2023-05-23T15:29:48.274Z,16.65
2023-05-23T15:32:16.214Z,15.23
2023-05-23T15:34:43.886Z,17.30
2023-05-23T15:37:11.144Z,16.23
2023-05-23T15:39:38.254Z,18.02
2023-05-23T15:42:05.518Z,15.50
2023-05-23T15:44:32.684Z,15.63
2023-05-23T15:46:59.768Z,16.15
2023-05-23T15:49:27.506Z,15.85
2023-05-23T15:51:55.422Z,14.98
2023-05-23T15:54:22.919Z,14.02
2023-05-23T15:56:50.043Z,18.35
2023-05-23T15:59:17.252Z,14.55
2023-05-23T16:01:44.467Z,15.50
2023-05-23T16:04:11.756Z,14.90
2023-05-23T16:06:39.256Z,14.23
2023-05-23T16:09:06.444Z,13.93
2023-05-23T16:11:33.546Z,13.75
2023-05-23T16:14:00.687Z,14.05
2023-05-23T16:16:27.819Z,15.50
2023-05-23T16:18:55.105Z,13.98
2023-05-23T16:21:22.259Z,13.52
2023-05-23T16:23:49.867Z,14.50
2023-05-23T16:26:18.566Z,14.23
2023-05-23T16:28:45.969Z,12.90
2023-05-23T16:31:17.015Z,13.50
2023-05-23T16:33:44.664Z,14.70
2023-05-23T16:36:11.922Z,14.13
2023-05-23T16:38:39.046Z,11.95
2023-05-23T16:41:06.185Z,14.75
2023-05-23T16:43:33.984Z,14.65
2023-05-23T16:46:00.894Z,15.07
2023-05-23T16:48:28.051Z,11.82
2023-05-23T16:50:55.524Z,13.82
2023-05-23T16:53:22.636Z,9.88
2023-05-23T16:55:49.764Z,12.95
2023-05-23T16:58:19.237Z,10.43
2023-05-23T17:00:47.905Z,10.55
2023-05-23T17:03:15.136Z,8.38
2023-05-23T17:05:42.508Z,9.55
2023-05-23T17:08:09.808Z,13.18
2023-05-23T17:10:37.149Z,11.45
2023-05-23T17:13:04.217Z,10.35
2023-05-23T17:15:32.076Z,8.88
2023-05-23T17:17:59.185Z,10.85
2023-05-23T17:20:27.021Z,8.50
2023-05-23T17:22:54.940Z,9.38
2023-05-23T17:25:22.409Z,7.93
2023-05-23T17:27:49.535Z,8.68
2023-05-23T17:30:19.716Z,8.98
2023-05-23T17:32:47.508Z,7.10
2023-05-23T17:35:14.738Z,7.97
2023-05-23T17:37:43.712Z,9.27
2023-05-23T17:40:14.160Z,8.13
2023-05-23T17:42:41.898Z,7.22
2023-05-23T17:45:09.762Z,5.78
2023-05-23T17:47:37.142Z,9.70
2023-05-23T17:50:07.472Z,9.40
2023-05-23T17:52:34.906Z,7.90
2023-05-23T17:55:02.310Z,7.70
2023-05-23T17:57:32.245Z,10.35
2023-05-23T18:00:00.165Z,6.05
2023-05-23T18:02:27.729Z,7.90
2023-05-23T18:04:55.404Z,8.23
2023-05-23T18:07:22.692Z,8.73
2023-05-23T18:09:50.285Z,7.15
2023-05-23T18:12:17.770Z,7.25
2023-05-23T18:14:45.438Z,7.45
2023-05-23T18:17:13.002Z,7.20
2023-05-23T18:19:40.451Z,6.15
2023-05-23T18:22:07.656Z,4.85
2023-05-23T18:24:34.812Z,4.38
2023-05-23T18:27:03.311Z,5.53
2023-05-23T18:29:30.691Z,4.97
2023-05-23T18:31:57.933Z,4.22
2023-05-23T18:34:26.587Z,5.57
2023-05-23T18:36:55.692Z,5.63
2023-05-23T18:39:22.832Z,5.45
2023-05-23T18:41:49.993Z,4.95
2023-05-23T18:44:20.341Z,5.50
2023-05-23T18:46:48.177Z,5.47
2023-05-23T18:49:15.638Z,7.07
2023-05-23T18:51:43.188Z,4.10
2023-05-23T18:54:10.387Z,5.03
2023-05-23T18:56:37.541Z,5.60
2023-05-23T18:59:04.658Z,4.07
2023-05-23T19:01:31.820Z,5.72
2023-05-23T19:03:59.149Z,4.75
2023-05-23T19:06:27.595Z,4.50
2023-05-23T19:08:54.707Z,6.20
2023-05-23T19:11:22.560Z,5.78
2023-05-23T19:13:49.811Z,5.55
2023-05-23T19:16:17.409Z,5.18
2023-05-23T19:18:45.061Z,4.45
2023-05-23T19:21:12.778Z,4.38
2023-05-23T19:23:40.010Z,4.50
2023-05-23T19:26:07.630Z,6.07
2023-05-23T19:28:34.691Z,4.85
2023-05-23T19:31:01.917Z,6.00
2023-05-23T19:33:29.033Z,8.15
2023-05-23T19:35:56.143Z,4.32
2023-05-23T19:38:23.428Z,6.45
2023-05-23T19:40:50.699Z,6.20
2023-05-23T19:43:19.050Z,7.65
2023-05-23T19:45:46.175Z,6.65
2023-05-23T19:48:13.443Z,5.82
2023-05-23T19:50:42.995Z,6.85
2023-05-23T19:53:10.388Z,6.00
2023-05-23T19:55:37.490Z,6.18
2023-05-23T19:58:04.571Z,8.15
2023-05-23T20:00:31.901Z,4.38
2023-05-23T20:02:59.129Z,7.25
2023-05-23T20:05:27.427Z,7.63
2023-05-23T20:07:54.513Z,6.25
2023-05-23T20:10:22.810Z,8.30
2023-05-23T20:12:50.045Z,11.32
2023-05-23T20:15:21.774Z,8.70
2023-05-23T20:17:55.009Z,5.95
2023-05-23T20:20:22.165Z,6.35
2023-05-23T20:22:49.490Z,8.75
2023-05-23T20:25:17.455Z,9.25
2023-05-23T20:27:44.576Z,8.32
2023-05-23T20:30:12.044Z,7.30
2023-05-23T20:32:39.258Z,8.27
2023-05-23T20:35:06.734Z,9.65
2023-05-23T20:37:34.728Z,6.07
2023-05-23T20:40:01.855Z,7.13
2023-05-23T20:42:31.026Z,8.57
2023-05-23T20:44:58.105Z,8.70
2023-05-23T20:47:25.668Z,8.70
2023-05-23T20:49:52.883Z,8.13
2023-05-23T20:52:20.066Z,8.75
2023-05-23T20:54:48.085Z,8.48
2023-05-23T20:57:15.472Z,11.10
2023-05-23T20:59:42.601Z,6.10
2023-05-23T21:02:09.778Z,8.38
2023-05-23T21:04:37.098Z,8.82
2023-05-23T21:07:04.226Z,9.07
2023-05-23T21:09:31.294Z,9.50
2023-05-23T21:11:58.575Z,8.93
2023-05-23T21:14:25.670Z,8.00
2023-05-23T21:16:53.967Z,9.70
2023-05-23T21:19:21.229Z,9.98
2023-05-23T21:21:50.527Z,9.27
2023-05-23T21:24:17.664Z,7.72
2023-05-23T21:26:44.407Z,9.85
2023-05-23T21:29:11.263Z,8.73
2023-05-23T21:31:41.927Z,10.50
2023-05-23T21:34:22.387Z,9.73
2023-05-23T21:36:52.636Z,9.07
2023-05-23T21:39:19.883Z,10.90
2023-05-23T21:41:46.562Z,8.65
2023-05-23T21:44:15.308Z,10.07
2023-05-23T21:46:41.979Z,10.70
2023-05-23T21:49:08.727Z,8.25
2023-05-23T21:51:36.234Z,7.70
2023-05-23T21:54:02.916Z,10.07
2023-05-23T21:56:29.570Z,8.88
2023-05-23T21:58:56.263Z,8.30
2023-05-23T22:01:22.927Z,11.63
2023-05-23T22:03:49.721Z,11.18
2023-05-23T22:06:16.610Z,7.40
2023-05-23T22:08:45.852Z,10.35
2023-05-23T22:11:12.758Z,9.38
2023-05-23T22:13:40.682Z,8.82
2023-05-23T22:16:07.528Z,10.75
2023-05-23T22:18:51.079Z,11.88
2023-05-23T22:23:45.320Z,8.40
2023-05-23T22:26:12.712Z,8.75
2023-05-23T22:28:39.589Z,9.55
2023-05-23T22:31:06.560Z,8.95
2023-05-23T22:33:33.378Z,8.93
2023-05-23T22:36:00.084Z,9.43
2023-05-23T22:38:26.857Z,10.40
2023-05-23T22:40:53.548Z,8.57
2023-05-23T22:43:21.905Z,11.25
2023-05-23T22:45:50.043Z,10.20
2023-05-23T22:48:19.214Z,8.63
2023-05-23T22:50:46.695Z,10.15
2023-05-23T22:53:15.232Z,8.18
2023-05-23T22:55:42.185Z,10.30
2023-05-23T22:58:08.970Z,8.70
2023-05-23T23:00:36.618Z,8.93
2023-05-23T23:03:03.828Z,7.78
2023-05-23T23:05:30.844Z,7.88
2023-05-23T23:07:57.581Z,10.48
2023-05-23T23:10:24.340Z,10.77
2023-05-23T23:12:51.152Z,8.90
2023-05-23T23:15:17.870Z,6.60
2023-05-23T23:17:44.913Z,9.77
2023-05-23T23:20:12.828Z,8.95
2023-05-23T23:22:40.154Z,9.60
2023-05-23T23:25:10.758Z,8.02
2023-05-23T23:27:38.239Z,8.88
2023-05-23T23:30:06.797Z,8.05
2023-05-23T23:32:34.445Z,9.10
2023-05-23T23:35:01.876Z,7.75
2023-05-23T23:37:29.121Z,7.95
2023-05-23T23:39:56.261Z,9.07
2023-05-23T23:42:23.341Z,6.95
2023-05-23T23:44:50.524Z,7.57
2023-05-23T23:47:17.632Z,7.20
2023-05-23T23:49:44.853Z,7.07
2023-05-23T23:52:11.987Z,6.72
2023-05-23T23:54:39.052Z,6.45
2023-05-23T23:57:06.726Z,8.77
2023-05-23T23:59:33.793Z,7.63
